Time;durP1;ratioP1;P1;durP2;ratioP2;P2;SDS_P1;SDS_P2;PMS_P1;PMS_P2;Temp;Humidity;BMP_temperature;BMP_pressure;BME280_temperature;BME280_humidity;BME280_pressure;Samples;Min_cycle;Max_cycle;Signal;HPM_P1;HPM_P2
2023/05/06 00:01:44;;;;;;;11.38;10.27;;;;;;;13.91;100.00;101524.44;5236265;28;20029;-71
2023/05/06 00:04:15;;;;;;;11.25;10.15;;;;;;;13.91;100.00;101515.72;5237715;28;20512;-71
2023/05/06 00:06:47;;;;;;;10.98;9.88;;;;;;;13.74;100.00;101515.38;5236752;28;20024;-71
2023/05/06 00:09:19;;;;;;;13.10;11.52;;;;;;;13.74;100.00;101517.19;5236021;28;20268;-71
2023/05/06 00:11:51;;;;;;;12.53;10.77;;;;;;;13.77;100.00;101515.13;5233122;28;20745;-71
2023/05/06 00:14:22;;;;;;;12.10;10.32;;;;;;;13.72;100.00;101521.78;5236956;28;20029;-71
2023/05/06 00:16:53;;;;;;;11.35;10.15;;;;;;;13.69;100.00;101511.50;5242846;28;20025;-71
2023/05/06 00:19:25;;;;;;;11.80;10.60;;;;;;;13.63;100.00;101518.13;5234996;28;20402;-71
2023/05/06 00:21:57;;;;;;;11.27;10.13;;;;;;;13.60;100.00;101519.25;5238083;28;20025;-71
2023/05/06 00:24:28;;;;;;;13.15;11.85;;;;;;;13.59;100.00;101503.56;5237514;28;20966;-71
2023/05/06 00:27:00;;;;;;;13.10;11.85;;;;;;;13.57;100.00;101516.03;5233720;28;20067;-71
2023/05/06 00:29:31;;;;;;;11.98;10.77;;;;;;;13.54;100.00;101514.50;5238183;28;20033;-71
2023/05/06 00:32:03;;;;;;;11.82;10.65;;;;;;;13.45;100.00;101499.50;5235084;28;20094;-71
2023/05/06 00:34:34;;;;;;;12.00;10.88;;;;;;;13.52;100.00;101507.69;5223485;28;20029;-71
2023/05/06 00:37:06;;;;;;;11.70;10.50;;;;;;;13.51;100.00;101511.28;5230948;28;20034;-71
2023/05/06 00:39:37;;;;;;;11.57;10.27;;;;;;;13.49;100.00;101510.59;5241387;28;20107;-71
2023/05/06 00:42:08;;;;;;;12.18;10.98;;;;;;;13.57;100.00;101508.97;5239012;28;20394;-71
2023/05/06 00:44:39;;;;;;;11.55;10.35;;;;;;;13.43;100.00;101506.69;5234933;28;20026;-71
2023/05/06 00:47:11;;;;;;;12.18;11.00;;;;;;;13.45;100.00;101509.19;5237135;28;20377;-71
2023/05/06 00:49:45;;;;;;;12.95;11.60;;;;;;;13.35;100.00;101507.34;5235814;28;20545;-71
2023/05/06 00:52:17;;;;;;;11.38;10.27;;;;;;;13.26;100.00;101502.03;5219530;28;20029;-71
2023/05/06 00:54:49;;;;;;;10.63;9.52;;;;;;;13.29;100.00;101507.88;5238245;28;20104;-71
2023/05/06 00:57:20;;;;;;;11.70;10.60;;;;;;;13.26;100.00;101497.63;5238257;28;20738;-71
2023/05/06 00:59:53;;;;;;;12.65;11.40;;;;;;;13.09;100.00;101493.75;5236564;28;20091;-71
2023/05/06 01:02:24;;;;;;;11.32;10.32;;;;;;;13.10;100.00;101492.78;5238555;28;20045;-71
2023/05/06 01:04:56;;;;;;;12.20;11.05;;;;;;;13.05;100.00;101500.25;5241481;28;20551;-70
2023/05/06 01:07:39;;;;;;;11.52;10.43;;;;;;;13.08;100.00;101491.25;5236573;28;20048;-71
2023/05/06 01:10:37;;;;;;;11.75;10.65;;;;;;;13.15;100.00;101503.78;5232269;28;20111;-71
2023/05/06 01:13:20;;;;;;;12.02;10.77;;;;;;;13.09;100.00;101501.66;5238401;28;20159;-71
2023/05/06 01:15:56;;;;;;;12.37;11.17;;;;;;;13.05;100.00;101494.97;5232634;28;20393;-71
2023/05/06 01:18:31;;;;;;;11.38;10.25;;;;;;;12.92;100.00;101497.00;5235085;28;20298;-71
2023/05/06 01:21:04;;;;;;;11.63;10.40;;;;;;;12.88;100.00;101506.94;5217974;28;20033;-71
2023/05/06 01:23:56;;;;;;;11.65;10.45;;;;;;;13.18;100.00;101500.03;5238301;28;20033;-71
2023/05/06 01:26:28;;;;;;;10.98;9.88;;;;;;;12.77;100.00;101496.50;5235678;28;20051;-71
2023/05/06 01:29:01;;;;;;;11.55;10.45;;;;;;;12.70;100.00;101487.44;5231900;28;20017;-73
2023/05/06 01:31:41;;;;;;;11.38;10.30;;;;;;;12.83;100.00;101479.34;5243740;28;20061;-71
2023/05/06 01:34:26;;;;;;;11.35;10.25;;;;;;;12.87;100.00;101486.84;5243169;28;20036;-71
2023/05/06 01:37:08;;;;;;;11.43;10.23;;;;;;;12.87;100.00;101492.09;5240123;28;20120;-71
2023/05/06 01:39:40;;;;;;;11.27;10.07;;;;;;;12.70;100.00;101487.44;5239985;28;20036;-71
2023/05/06 01:42:13;;;;;;;12.23;11.13;;;;;;;12.74;100.00;101491.47;5240845;28;20208;-70
2023/05/06 01:44:47;;;;;;;13.00;10.05;;;;;;;12.61;100.00;101493.44;5241017;28;20056;-71
2023/05/06 01:47:18;;;;;;;12.88;11.48;;;;;;;12.60;100.00;101497.88;5240376;28;20157;-70
2023/05/06 01:49:50;;;;;;;11.48;9.70;;;;;;;12.66;100.00;101496.53;5221121;28;20033;-71
2023/05/06 01:52:22;;;;;;;11.63;10.50;;;;;;;12.65;100.00;101494.84;5223566;28;20033;-70
2023/05/06 01:54:53;;;;;;;11.27;10.07;;;;;;;12.67;100.00;101500.84;5220708;28;20031;-70
2023/05/06 01:57:24;;;;;;;11.43;10.38;;;;;;;12.53;100.00;101511.66;5241971;28;20033;-70
2023/05/06 01:59:55;;;;;;;11.57;10.38;;;;;;;12.51;100.00;101509.16;5236566;28;20390;-70
2023/05/06 02:02:27;;;;;;;11.85;10.00;;;;;;;12.45;100.00;101506.19;5236552;28;20048;-70
2023/05/06 02:04:58;;;;;;;12.60;10.68;;;;;;;12.49;100.00;101510.25;5222745;28;20365;-70
2023/05/06 02:07:29;;;;;;;10.80;9.75;;;;;;;12.51;100.00;101505.69;5242395;28;20039;-70
2023/05/06 02:10:00;;;;;;;12.10;10.90;;;;;;;12.52;100.00;101505.56;5237578;28;20056;-70
2023/05/06 02:12:32;;;;;;;11.75;10.55;;;;;;;12.45;100.00;101509.66;5240642;28;20030;-70
2023/05/06 02:15:03;;;;;;;10.52;9.52;;;;;;;12.44;100.00;101513.25;5242161;28;20081;-70
2023/05/06 02:17:36;;;;;;;11.25;10.05;;;;;;;12.42;100.00;101525.66;5240016;28;20067;-70
2023/05/06 02:20:11;;;;;;;10.45;9.35;;;;;;;12.42;100.00;101520.41;5240678;28;20390;-70
2023/05/06 02:22:42;;;;;;;11.43;10.25;;;;;;;12.30;100.00;101521.41;5233904;28;20033;-70
2023/05/06 02:25:13;;;;;;;12.35;10.95;;;;;;;12.34;100.00;101520.22;5225176;28;20082;-70
2023/05/06 02:27:45;;;;;;;11.02;9.88;;;;;;;12.28;100.00;101513.66;5241412;28;20075;-70
2023/05/06 02:30:16;;;;;;;11.80;10.57;;;;;;;12.43;100.00;101521.28;5238463;28;20029;-70
2023/05/06 02:32:47;;;;;;;11.68;10.57;;;;;;;12.44;100.00;101520.31;5239145;28;20029;-70
2023/05/06 02:35:18;;;;;;;11.85;10.65;;;;;;;12.45;100.00;101514.91;5235950;28;20118;-70
2023/05/06 02:37:50;;;;;;;12.52;10.57;;;;;;;12.47;100.00;101514.81;5240196;28;20025;-70
2023/05/06 02:40:21;;;;;;;10.40;9.32;;;;;;;12.47;100.00;101520.88;5241637;28;20051;-71
2023/05/06 02:42:52;;;;;;;11.20;10.13;;;;;;;12.41;100.00;101519.56;5238630;28;20017;-70
2023/05/06 02:45:23;;;;;;;13.63;10.25;;;;;;;12.36;100.00;101515.69;5235263;28;20056;-70
2023/05/06 02:47:55;;;;;;;12.02;10.07;;;;;;;12.28;100.00;101507.59;5241874;28;20032;-70
2023/05/06 02:50:26;;;;;;;11.23;10.02;;;;;;;12.38;100.00;101511.94;5240674;28;20028;-70
2023/05/06 02:52:57;;;;;;;9.98;9.02;;;;;;;12.36;100.00;101513.88;5241000;28;20039;-70
2023/05/06 02:55:29;;;;;;;12.25;10.70;;;;;;;12.34;100.00;101505.28;5241158;28;20045;-71
2023/05/06 02:58:01;;;;;;;11.77;10.68;;;;;;;12.26;100.00;101501.59;5234684;28;20025;-70
2023/05/06 03:00:32;;;;;;;11.13;9.95;;;;;;;12.23;100.00;101505.31;5242020;28;20294;-70
2023/05/06 03:03:03;;;;;;;10.45;9.38;;;;;;;12.20;100.00;101513.47;5238253;28;20504;-71
2023/05/06 03:05:34;;;;;;;11.13;9.98;;;;;;;12.18;100.00;101510.13;5236404;28;20040;-71
2023/05/06 03:08:06;;;;;;;12.80;9.18;;;;;;;12.12;100.00;101505.34;5234325;28;20060;-71
2023/05/06 03:10:37;;;;;;;10.88;8.88;;;;;;;12.06;100.00;101504.06;5239460;28;20087;-71
2023/05/06 03:13:09;;;;;;;10.70;9.20;;;;;;;12.08;100.00;101507.38;5238685;28;20029;-71
2023/05/06 03:15:40;;;;;;;10.35;8.88;;;;;;;12.08;100.00;101504.75;5237347;28;20037;-71
2023/05/06 03:18:11;;;;;;;10.65;9.55;;;;;;;12.11;100.00;101508.94;5240219;28;20116;-71
2023/05/06 03:20:42;;;;;;;10.20;9.18;;;;;;;12.07;100.00;101502.25;5236898;28;20029;-71
2023/05/06 03:23:14;;;;;;;9.00;8.20;;;;;;;12.04;100.00;101503.34;5236391;28;20059;-71
2023/05/06 03:25:45;;;;;;;9.85;8.93;;;;;;;12.01;100.00;101493.09;5238576;28;20025;-71
2023/05/06 03:28:17;;;;;;;10.48;9.38;;;;;;;12.02;100.00;101492.13;5244160;28;20025;-71
2023/05/06 03:30:48;;;;;;;9.73;8.73;;;;;;;11.98;100.00;101495.13;5234852;28;20021;-71
2023/05/06 03:33:19;;;;;;;9.80;8.80;;;;;;;11.98;100.00;101497.78;5239099;28;20033;-71
2023/05/06 03:35:51;;;;;;;9.90;8.90;;;;;;;11.94;100.00;101502.44;5236096;28;20038;-71
2023/05/06 03:38:22;;;;;;;9.45;8.45;;;;;;;11.92;100.00;101492.03;5240068;28;20033;-71
2023/05/06 03:40:53;;;;;;;10.20;9.05;;;;;;;11.94;100.00;101489.28;5237318;28;20091;-71
2023/05/06 03:43:25;;;;;;;9.98;8.98;;;;;;;11.90;100.00;101493.97;5237625;28;20032;-71
2023/05/06 03:45:56;;;;;;;12.20;9.48;;;;;;;11.88;100.00;101492.41;5236597;28;20045;-71
2023/05/06 03:48:28;;;;;;;9.57;8.57;;;;;;;11.79;100.00;101498.38;5221006;28;20557;-71
2023/05/06 03:50:59;;;;;;;9.90;8.88;;;;;;;11.78;100.00;101501.94;5237121;28;20029;-71
2023/05/06 03:53:30;;;;;;;8.70;7.80;;;;;;;11.80;100.00;101502.66;5217127;28;20569;-70
2023/05/06 03:56:02;;;;;;;11.48;8.93;;;;;;;11.82;100.00;101506.84;5236095;28;20040;-71
2023/05/06 03:58:33;;;;;;;9.93;8.07;;;;;;;11.91;100.00;101502.66;5238993;28;20025;-71
2023/05/06 04:01:04;;;;;;;9.98;8.90;;;;;;;11.86;100.00;101512.72;5239346;28;20025;-71
2023/05/06 04:03:35;;;;;;;8.95;8.05;;;;;;;11.83;100.00;101498.03;5233744;28;20061;-70
2023/05/06 04:06:07;;;;;;;9.05;8.18;;;;;;;11.80;100.00;101511.34;5240266;28;20112;-71
2023/05/06 04:08:38;;;;;;;10.55;8.77;;;;;;;11.77;100.00;101505.50;5237943;28;20025;-71
2023/05/06 04:11:09;;;;;;;10.02;8.38;;;;;;;11.76;100.00;101517.81;5215551;28;20025;-71
2023/05/06 04:13:41;;;;;;;11.30;8.85;;;;;;;11.79;100.00;101512.31;5236495;28;20500;-71
2023/05/06 04:16:12;;;;;;;8.63;7.60;;;;;;;11.85;100.00;101511.03;5236194;28;20033;-71
2023/05/06 04:18:44;;;;;;;10.10;8.57;;;;;;;11.92;100.00;101506.94;5238813;28;20021;-72
2023/05/06 04:21:17;;;;;;;9.05;8.15;;;;;;;11.91;100.00;101513.16;5234397;28;20106;-71
2023/05/06 04:23:48;;;;;;;9.57;7.97;;;;;;;11.93;100.00;101514.72;5238325;28;20390;-71
2023/05/06 04:26:19;;;;;;;9.02;8.13;;;;;;;11.93;100.00;101516.50;5238593;28;20044;-71
2023/05/06 04:28:51;;;;;;;10.95;8.07;;;;;;;11.96;100.00;101520.69;5219837;28;20016;-71
2023/05/06 04:31:23;;;;;;;10.00;7.80;;;;;;;12.02;100.00;101517.56;5237683;28;20089;-71
2023/05/06 04:33:54;;;;;;;9.75;7.97;;;;;;;11.97;100.00;101517.09;5238564;28;20021;-71
2023/05/06 04:36:26;;;;;;;9.80;7.78;;;;;;;11.92;100.00;101522.72;5235084;28;20577;-71
2023/05/06 04:38:57;;;;;;;10.63;8.93;;;;;;;11.95;100.00;101516.38;5237627;28;20104;-71
2023/05/06 04:41:29;;;;;;;11.02;8.07;;;;;;;11.92;100.00;101501.69;5236089;28;20083;-71
2023/05/06 04:44:02;;;;;;;9.15;7.53;;;;;;;11.99;100.00;101517.81;5241690;28;20056;-70
2023/05/06 04:46:33;;;;;;;9.00;7.80;;;;;;;12.06;100.00;101511.13;5233562;28;20052;-71
2023/05/06 04:49:05;;;;;;;9.55;7.80;;;;;;;12.09;100.00;101521.38;5235657;28;20029;-71
2023/05/06 04:51:36;;;;;;;8.40;6.93;;;;;;;12.01;100.00;101516.75;5234156;28;20039;-71
2023/05/06 04:54:07;;;;;;;9.07;7.40;;;;;;;12.10;100.00;101525.66;5236702;28;20025;-71
2023/05/06 04:56:38;;;;;;;9.65;7.53;;;;;;;12.13;100.00;101538.56;5237056;28;20033;-71
2023/05/06 04:59:10;;;;;;;9.05;8.00;;;;;;;12.11;100.00;101527.31;5234636;28;20036;-71
2023/05/06 05:01:41;;;;;;;8.55;7.65;;;;;;;12.25;100.00;101532.31;5234009;28;20082;-71
2023/05/06 05:04:12;;;;;;;9.60;7.45;;;;;;;12.31;100.00;101538.84;5239770;28;20060;-71
2023/05/06 05:06:44;;;;;;;11.02;7.40;;;;;;;12.27;100.00;101533.00;5236888;28;20056;-71
2023/05/06 05:09:15;;;;;;;8.82;7.88;;;;;;;12.29;100.00;101543.41;5241493;28;20036;-71
2023/05/06 05:11:46;;;;;;;8.60;7.35;;;;;;;12.28;100.00;101532.06;5240946;28;20033;-71
2023/05/06 05:14:18;;;;;;;8.15;7.30;;;;;;;12.37;100.00;101548.88;5240332;28;20597;-71
2023/05/06 05:16:49;;;;;;;8.70;7.15;;;;;;;12.39;100.00;101553.06;5239487;28;20522;-71
2023/05/06 05:19:20;;;;;;;11.32;7.35;;;;;;;12.40;100.00;101551.25;5243135;28;20445;-71
2023/05/06 05:21:52;;;;;;;7.85;7.05;;;;;;;12.43;100.00;101551.00;5240495;28;20029;-71
2023/05/06 05:24:23;;;;;;;9.48;7.82;;;;;;;12.50;100.00;101551.31;5239461;28;20110;-71
2023/05/06 05:26:54;;;;;;;9.07;7.63;;;;;;;12.55;100.00;101554.44;5246819;28;20044;-71
2023/05/06 05:29:25;;;;;;;7.57;6.63;;;;;;;12.62;100.00;101563.47;5239035;28;20335;-71
2023/05/06 05:31:57;;;;;;;10.82;7.13;;;;;;;12.57;100.00;101555.13;5238078;28;20269;-71
2023/05/06 05:34:28;;;;;;;13.00;7.65;;;;;;;12.63;100.00;101571.22;5242444;28;20044;-71
2023/05/06 05:37:00;;;;;;;10.77;6.65;;;;;;;12.61;100.00;101560.03;5238616;28;20061;-71
2023/05/06 05:39:31;;;;;;;9.32;7.40;;;;;;;12.68;100.00;101567.38;5235429;28;20079;-71
2023/05/06 05:42:02;;;;;;;8.45;7.03;;;;;;;12.66;100.00;101570.97;5239830;28;20037;-71
2023/05/06 05:44:34;;;;;;;10.50;7.72;;;;;;;12.75;100.00;101573.81;5240377;28;20036;-72
2023/05/06 05:47:05;;;;;;;9.43;7.45;;;;;;;12.85;100.00;101566.84;5238405;28;20667;-71
2023/05/06 05:49:37;;;;;;;9.15;7.03;;;;;;;12.91;100.00;101567.16;5242168;28;20033;-71
2023/05/06 05:52:09;;;;;;;11.00;8.15;;;;;;;12.99;100.00;101561.25;5222930;28;20051;-71
2023/05/06 05:54:40;;;;;;;8.85;7.50;;;;;;;13.06;100.00;101569.47;5237785;28;20021;-71
2023/05/06 05:57:11;;;;;;;8.40;6.20;;;;;;;13.13;100.00;101565.34;5237262;28;20037;-71
2023/05/06 05:59:43;;;;;;;11.45;7.25;;;;;;;13.21;100.00;101562.09;5244188;28;20091;-71
2023/05/06 06:02:14;;;;;;;10.07;6.80;;;;;;;13.29;100.00;101552.59;5227191;28;20452;-72
2023/05/06 06:04:45;;;;;;;9.75;6.90;;;;;;;13.34;100.00;101560.13;5222030;28;20029;-72
2023/05/06 06:07:16;;;;;;;9.45;6.72;;;;;;;13.38;100.00;101565.00;5238704;28;20039;-72
2023/05/06 06:09:48;;;;;;;8.10;6.68;;;;;;;13.51;100.00;101569.19;5236328;28;20017;-72
2023/05/06 06:12:19;;;;;;;9.27;5.88;;;;;;;13.64;100.00;101561.94;5237656;28;20033;-72
2023/05/06 06:14:50;;;;;;;9.43;6.60;;;;;;;13.73;100.00;101560.28;5239023;28;20470;-72
2023/05/06 06:17:22;;;;;;;9.77;6.60;;;;;;;13.80;100.00;101561.44;5239290;28;20415;-72
2023/05/06 06:19:56;;;;;;;7.85;6.35;;;;;;;13.93;100.00;101558.53;5241440;28;20398;-72
2023/05/06 06:22:27;;;;;;;8.75;6.22;;;;;;;14.01;100.00;101558.72;5240122;28;20399;-72
2023/05/06 06:24:58;;;;;;;11.00;6.05;;;;;;;14.09;100.00;101565.00;5231795;28;20334;-73
2023/05/06 06:27:33;;;;;;;8.13;6.18;;;;;;;14.25;100.00;101571.53;5235363;28;20508;-72
2023/05/06 06:30:05;;;;;;;8.60;6.35;;;;;;;14.22;100.00;101571.81;5238003;28;20029;-72
2023/05/06 06:32:46;;;;;;;8.93;5.90;;;;;;;14.40;100.00;101564.91;5238038;28;20033;-72
2023/05/06 06:35:19;;;;;;;10.18;6.85;;;;;;;14.34;100.00;101566.25;5220149;28;20120;-71
2023/05/06 06:37:50;;;;;;;9.13;5.93;;;;;;;14.40;100.00;101574.63;5236231;28;20466;-72
2023/05/06 06:40:21;;;;;;;8.57;5.63;;;;;;;14.50;100.00;101573.66;5241802;28;20021;-72
2023/05/06 06:42:53;;;;;;;10.13;6.10;;;;;;;14.62;100.00;101579.63;5234776;28;20474;-72
2023/05/06 06:45:24;;;;;;;7.70;5.45;;;;;;;14.66;100.00;101572.28;5237446;28;20053;-72
2023/05/06 06:47:56;;;;;;;9.88;5.60;;;;;;;14.74;100.00;101583.00;5240396;28;20025;-71
2023/05/06 06:50:27;;;;;;;8.65;6.10;;;;;;;14.86;100.00;101586.31;5236796;28;20147;-72
2023/05/06 06:52:58;;;;;;;7.63;5.70;;;;;;;14.99;100.00;101578.91;5237717;28;20044;-72
2023/05/06 06:55:30;;;;;;;7.25;5.35;;;;;;;15.18;100.00;101576.25;5223396;28;20067;-72
2023/05/06 06:58:02;;;;;;;7.72;5.72;;;;;;;15.21;100.00;101575.97;5236141;28;20029;-72
2023/05/06 07:00:33;;;;;;;8.30;5.95;;;;;;;15.43;100.00;101581.91;5240768;28;20044;-72
2023/05/06 07:03:04;;;;;;;8.35;5.65;;;;;;;15.43;100.00;101579.25;5233485;28;20031;-72
2023/05/06 07:05:36;;;;;;;10.70;6.72;;;;;;;15.57;100.00;101584.09;5240940;28;20112;-72
2023/05/06 07:08:07;;;;;;;9.77;6.55;;;;;;;15.67;100.00;101584.06;5240829;28;20025;-72
2023/05/06 07:10:40;;;;;;;7.50;5.45;;;;;;;15.82;100.00;101583.44;5214618;28;20366;-72
2023/05/06 07:13:11;;;;;;;;;;;;;;;16.57;100.00;101582.44;5235329;28;20069;-72
2023/05/06 07:15:43;;;;;;;10.00;6.05;;;;;;;16.13;100.00;101585.78;5242628;28;20028;-72
2023/05/06 07:18:14;;;;;;;9.02;6.22;;;;;;;16.31;100.00;101591.09;5238162;28;21122;-72
2023/05/06 07:20:46;;;;;;;9.48;6.90;;;;;;;16.43;100.00;101592.53;5236647;28;20401;-72
2023/05/06 07:23:17;;;;;;;10.55;7.35;;;;;;;16.42;100.00;101579.47;5244049;28;20035;-71
2023/05/06 07:25:48;;;;;;;11.23;7.78;;;;;;;16.61;100.00;101592.56;5240319;28;20029;-71
2023/05/06 07:28:19;;;;;;;14.05;8.32;;;;;;;16.74;100.00;101590.41;5228921;28;20013;-71
2023/05/06 07:30:51;;;;;;;14.38;9.57;;;;;;;16.87;100.00;101590.00;5240839;28;20032;-71
2023/05/06 07:33:23;;;;;;;16.58;11.68;;;;;;;16.88;100.00;101583.72;5236100;28;20037;-71
2023/05/06 07:35:54;;;;;;;21.98;9.45;;;;;;;17.08;100.00;101592.31;5240409;28;20036;-72
2023/05/06 07:38:25;;;;;;;15.65;10.85;;;;;;;17.11;100.00;101592.00;5218123;28;20029;-72
2023/05/06 07:40:57;;;;;;;15.88;10.55;;;;;;;17.22;100.00;101591.75;5240229;28;20029;-72
2023/05/06 07:43:28;;;;;;;14.43;10.73;;;;;;;17.49;100.00;101587.28;5239973;28;20021;-71
2023/05/06 07:46:02;;;;;;;20.08;11.15;;;;;;;17.45;100.00;101585.94;5239548;28;20429;-72
2023/05/06 07:48:33;;;;;;;14.43;10.65;;;;;;;17.65;100.00;101586.53;5233875;28;20445;-72
2023/05/06 07:51:04;;;;;;;15.65;10.85;;;;;;;17.74;100.00;101597.00;5222066;28;20083;-72
2023/05/06 07:53:38;;;;;;;15.43;10.70;;;;;;;17.91;100.00;101589.97;5242701;28;20017;-72
2023/05/06 07:56:10;;;;;;;15.05;10.20;;;;;;;17.93;100.00;101593.31;5233421;28;20108;-72
2023/05/06 07:58:41;;;;;;;17.10;10.15;;;;;;;18.16;100.00;101593.56;5236785;28;20043;-71
2023/05/06 08:01:12;;;;;;;11.90;9.00;;;;;;;18.19;100.00;101601.19;5233786;28;20045;-72
2023/05/06 08:03:43;;;;;;;12.13;9.02;;;;;;;18.44;100.00;101598.59;5216252;28;20025;-72
2023/05/06 08:06:15;;;;;;;12.30;8.68;;;;;;;18.59;100.00;101588.97;5234371;28;20037;-72
2023/05/06 08:08:46;;;;;;;13.10;8.82;;;;;;;18.68;100.00;101589.84;5233379;28;20079;-72
2023/05/06 08:11:17;;;;;;;12.52;8.88;;;;;;;18.80;100.00;101601.81;5228496;28;20033;-71
2023/05/06 08:13:49;;;;;;;14.17;9.60;;;;;;;18.83;100.00;101603.31;5218212;28;20447;-72
2023/05/06 08:16:20;;;;;;;13.52;8.95;;;;;;;18.88;100.00;101601.00;5223268;28;20056;-72
2023/05/06 08:18:51;;;;;;;13.40;9.38;;;;;;;19.02;100.00;101608.28;5235268;28;20026;-72
2023/05/06 08:21:23;;;;;;;12.82;9.27;;;;;;;19.02;100.00;101596.84;5235773;28;20116;-72
2023/05/06 08:23:54;;;;;;;14.30;10.00;;;;;;;19.15;100.00;101592.66;5236965;28;20031;-73
2023/05/06 08:26:25;;;;;;;13.80;9.23;;;;;;;19.28;100.00;101589.50;5233407;28;20075;-73
2023/05/06 08:28:58;;;;;;;18.17;10.27;;;;;;;19.35;100.00;101587.81;5232425;28;20028;-72
2023/05/06 08:31:29;;;;;;;11.68;8.65;;;;;;;19.42;100.00;101593.28;5239056;28;20479;-72
2023/05/06 08:34:00;;;;;;;15.03;9.00;;;;;;;19.49;100.00;101594.25;5236360;28;20032;-73
2023/05/06 08:36:32;;;;;;;12.77;8.97;;;;;;;19.61;100.00;101592.88;5237059;28;20040;-72
2023/05/06 08:39:04;;;;;;;12.35;7.80;;;;;;;19.65;100.00;101590.75;5218218;28;20394;-72
2023/05/06 08:41:38;;;;;;;12.27;8.40;;;;;;;19.64;100.00;101595.25;5235565;28;20037;-72
2023/05/06 08:44:14;;;;;;;12.32;7.82;;;;;;;19.79;100.00;101592.69;5225743;28;20087;-73
2023/05/06 08:46:46;;;;;;;12.88;8.32;;;;;;;19.84;100.00;101586.84;5237947;28;20405;-73
2023/05/06 08:49:17;;;;;;;9.40;7.05;;;;;;;19.86;100.00;101584.88;5235275;28;20032;-73
2023/05/06 08:51:51;;;;;;;10.10;6.87;;;;;;;20.08;100.00;101581.44;5232760;28;20029;-73
2023/05/06 08:54:25;;;;;;;12.65;7.40;;;;;;;20.23;100.00;101583.31;5231109;28;20037;-73
2023/05/06 08:57:01;;;;;;;9.07;6.78;;;;;;;20.52;100.00;101585.34;5238973;28;20409;-73
2023/05/06 08:59:34;;;;;;;9.88;5.82;;;;;;;20.54;100.00;101586.00;5234177;28;20109;-73
2023/05/06 09:02:05;;;;;;;6.70;4.03;;;;;;;20.57;92.32;101575.84;5234122;28;20108;-73
2023/05/06 09:04:37;;;;;;;8.03;4.57;;;;;;;20.87;100.00;101574.09;5229691;28;20041;-72
2023/05/06 09:07:08;;;;;;;8.00;4.70;;;;;;;20.88;95.25;101572.25;5232927;28;20060;-73
2023/05/06 09:09:39;;;;;;;7.83;5.13;;;;;;;20.87;92.30;101568.75;5232580;28;20036;-72
2023/05/06 09:12:12;;;;;;;6.83;4.30;;;;;;;20.97;90.24;101570.34;5235307;28;20044;-73
2023/05/06 09:14:45;;;;;;;7.95;4.57;;;;;;;20.93;91.67;101571.69;5235644;28;20395;-72
2023/05/06 09:17:22;;;;;;;;;;;;;;;21.81;92.88;101571.75;5220261;28;20021;-73
2023/05/06 09:19:58;;;;;;;6.80;4.35;;;;;;;21.08;86.11;101565.38;5239039;28;19912;-73
2023/05/06 09:22:30;;;;;;;6.50;4.40;;;;;;;21.04;84.72;101566.75;5230237;28;20025;-71
2023/05/06 09:25:02;;;;;;;4.70;3.10;;;;;;;21.39;82.63;101561.75;5232505;28;20051;-72
2023/05/06 09:27:35;;;;;;;4.07;2.92;;;;;;;21.59;83.04;101573.53;5238471;28;20040;-72
2023/05/06 09:30:10;;;;;;;4.88;2.85;;;;;;;21.56;78.59;101562.41;5234553;28;20449;-72
2023/05/06 09:32:42;;;;;;;4.70;2.70;;;;;;;21.72;78.78;101564.06;5230021;28;20029;-72
2023/05/06 09:35:13;;;;;;;4.33;2.50;;;;;;;21.91;76.17;101570.66;5230217;28;20041;-72
2023/05/06 09:37:44;;;;;;;3.90;2.53;;;;;;;22.06;78.29;101568.78;5234675;28;20067;-72
2023/05/06 09:40:16;;;;;;;5.33;2.30;;;;;;;22.09;76.10;101563.88;5229752;28;20106;-72
2023/05/06 09:42:50;;;;;;;4.67;2.93;;;;;;;22.13;73.13;101566.19;5233593;28;20049;-72
2023/05/06 09:45:23;;;;;;;4.30;2.38;;;;;;;22.03;73.97;101555.78;5231495;28;20053;-72
2023/05/06 09:47:54;;;;;;;;;;;;;;;22.89;70.55;101553.16;5238376;28;20114;-72
2023/05/06 09:50:26;;;;;;;3.63;2.00;;;;;;;22.23;74.01;101561.38;5240935;28;20020;-72
2023/05/06 09:52:59;;;;;;;3.63;2.10;;;;;;;22.33;70.59;101552.03;5243002;28;20415;-72
2023/05/06 09:55:32;;;;;;;3.83;1.90;;;;;;;22.05;64.95;101551.13;5240552;28;20132;-72
2023/05/06 09:58:04;;;;;;;;;;;;;;;23.17;67.18;101556.66;5235987;28;20034;-72
2023/05/06 10:00:35;;;;;;;2.47;1.80;;;;;;;22.68;72.53;101554.81;5242052;28;20370;-73
2023/05/06 10:03:07;;;;;;;2.73;1.37;;;;;;;22.61;64.09;101547.78;5231851;28;20412;-73
2023/05/06 10:05:39;;;;;;;3.08;1.20;;;;;;;22.54;60.14;101545.88;5239023;28;20040;-73
2023/05/06 10:08:17;;;;;;;2.93;1.20;;;;;;;22.73;59.60;101554.22;5238269;28;20390;-73
2023/05/06 10:10:50;;;;;;;2.60;1.10;;;;;;;22.78;64.11;101549.16;5239360;28;20126;-72
2023/05/06 10:13:22;;;;;;;;;;;;;;;23.74;65.34;101546.69;5237212;28;20029;-72
2023/05/06 10:15:54;;;;;;;3.35;1.55;;;;;;;22.87;63.82;101545.31;5235701;28;19924;-73
2023/05/06 10:18:28;;;;;;;3.43;1.97;;;;;;;23.02;62.93;101535.38;5237234;28;20391;-73
2023/05/06 10:21:01;;;;;;;3.97;1.60;;;;;;;22.95;66.21;101547.03;5237002;28;20288;-73
2023/05/06 10:23:35;;;;;;;3.50;1.58;;;;;;;22.88;67.70;101546.13;5242804;28;20479;-72
2023/05/06 10:26:10;;;;;;;3.35;1.60;;;;;;;22.90;64.25;101544.94;5235913;28;20155;-72
2023/05/06 10:28:42;;;;;;;4.40;1.50;;;;;;;22.81;61.65;101535.41;5239410;28;20129;-74
2023/05/06 10:31:13;;;;;;;4.95;1.50;;;;;;;22.93;62.21;101536.56;5221631;28;20088;-74
2023/05/06 10:33:47;;;;;;;3.50;1.40;;;;;;;23.02;62.30;101537.22;5233250;28;20116;-74
2023/05/06 10:36:28;;;;;;;2.63;1.30;;;;;;;23.31;64.04;101539.69;5237133;28;20043;-73
2023/05/06 10:39:02;;;;;;;4.55;1.60;;;;;;;23.22;60.98;101532.00;5236830;28;20090;-73
2023/05/06 10:41:35;;;;;;;2.92;1.30;;;;;;;23.34;60.58;101533.13;5231403;28;20134;-73
2023/05/06 10:44:08;;;;;;;5.72;2.45;;;;;;;23.36;60.59;101531.06;5235046;28;20021;-73
2023/05/06 10:47:00;;;;;;;3.70;1.73;;;;;;;23.65;62.00;101527.28;5234609;28;20570;-73
2023/05/06 10:49:31;;;;;;;3.25;1.65;;;;;;;23.23;58.50;101533.69;5229299;28;20030;-73
2023/05/06 10:52:13;;;;;;;2.80;1.20;;;;;;;23.27;58.05;101518.88;5234835;28;20071;-73
2023/05/06 10:54:50;;;;;;;5.35;1.40;;;;;;;23.22;58.74;101526.66;5233972;28;20033;-73
2023/05/06 10:57:25;;;;;;;3.63;1.50;;;;;;;23.34;59.10;101526.94;5236638;28;20858;-73
2023/05/06 10:59:57;;;;;;;5.22;1.50;;;;;;;23.15;57.22;101520.47;5232893;28;20113;-73
2023/05/06 11:02:29;;;;;;;3.80;1.20;;;;;;;23.27;58.64;101510.88;5239115;28;20546;-72
2023/05/06 11:05:01;;;;;;;2.75;1.50;;;;;;;23.38;59.47;101520.19;5240836;28;20486;-72
2023/05/06 11:07:32;;;;;;;2.73;1.10;;;;;;;23.34;58.85;101517.06;5239454;28;20032;-72
2023/05/06 11:10:05;;;;;;;4.23;1.33;;;;;;;23.44;58.59;101512.16;5239278;28;20024;-72
2023/05/06 11:12:57;;;;;;;3.38;1.63;;;;;;;23.95;62.77;101517.13;5237797;28;20414;-72
2023/05/06 11:15:50;;;;;;;3.53;1.52;;;;;;;23.86;58.74;101518.31;5238570;28;20413;-72
2023/05/06 11:18:32;;;;;;;3.00;1.40;;;;;;;23.18;56.41;101512.03;5235821;28;20156;-73
2023/05/06 11:21:06;;;;;;;4.25;1.23;;;;;;;23.46;58.55;101504.78;5238149;28;20494;-73
2023/05/06 11:23:40;;;;;;;4.18;1.83;;;;;;;23.47;58.61;101509.09;5237682;28;20033;-71
2023/05/06 11:26:12;;;;;;;4.25;1.67;;;;;;;23.17;56.03;101505.88;5236648;28;20028;-72
2023/05/06 11:28:46;;;;;;;3.92;1.55;;;;;;;23.30;61.96;101508.63;5233591;28;20033;-72
2023/05/06 11:31:18;;;;;;;3.63;1.48;;;;;;;23.27;61.51;101503.66;5238063;28;20376;-72
2023/05/06 11:33:53;;;;;;;2.20;1.20;;;;;;;23.47;59.60;101508.28;5216488;28;20079;-72
2023/05/06 11:36:27;;;;;;;4.25;1.27;;;;;;;23.39;58.53;101509.28;5233388;28;20071;-72
2023/05/06 11:39:07;;;;;;;3.58;1.30;;;;;;;23.48;55.54;101505.41;5238591;28;20034;-72